sensor_id;sensor_type;location;lat;lon;timestamp;P1;durP1;ratioP1;P2;durP2;ratioP2
17504;SDS011;8870;50.950;11.762;2022-07-30T00:00:53;1.33;;;0.85;;
17504;SDS011;8870;50.950;11.762;2022-07-30T00:05:58;1.15;;;0.80;;
17504;SDS011;8870;50.950;11.762;2022-07-30T00:11:04;1.85;;;0.70;;
17504;SDS011;8870;50.950;11.762;2022-07-30T00:16:12;1.88;;;0.90;;
17504;SDS011;8870;50.950;11.762;2022-07-30T00:21:17;1.20;;;0.90;;
17504;SDS011;8870;50.950;11.762;2022-07-30T00:26:37;1.33;;;0.95;;
17504;SDS011;8870;50.950;11.762;2022-07-30T00:31:44;1.85;;;0.90;;
17504;SDS011;8870;50.950;11.762;2022-07-30T00:36:49;2.03;;;0.90;;
17504;SDS011;8870;50.950;11.762;2022-07-30T00:41:55;2.17;;;1.00;;
17504;SDS011;8870;50.950;11.762;2022-07-30T00:47:04;1.00;;;0.90;;
17504;SDS011;8870;50.950;11.762;2022-07-30T00:52:09;1.58;;;1.00;;
17504;SDS011;8870;50.950;11.762;2022-07-30T00:57:14;2.47;;;1.10;;
17504;SDS011;8870;50.950;11.762;2022-07-30T01:02:22;1.90;;;1.05;;
17504;SDS011;8870;50.950;11.762;2022-07-30T01:07:28;1.48;;;1.00;;
17504;SDS011;8870;50.950;11.762;2022-07-30T01:12:33;1.00;;;0.93;;
17504;SDS011;8870;50.950;11.762;2022-07-30T01:17:41;1.65;;;1.10;;
17504;SDS011;8870;50.950;11.762;2022-07-30T01:22:54;1.40;;;0.93;;
17504;SDS011;8870;50.950;11.762;2022-07-30T01:28:09;1.85;;;1.10;;
17504;SDS011;8870;50.950;11.762;2022-07-30T01:33:19;1.90;;;1.20;;
17504;SDS011;8870;50.950;11.762;2022-07-30T01:38:26;2.33;;;1.20;;
17504;SDS011;8870;50.950;11.762;2022-07-30T01:43:38;2.70;;;1.20;;
17504;SDS011;8870;50.950;11.762;2022-07-30T01:48:45;1.95;;;1.25;;
17504;SDS011;8870;50.950;11.762;2022-07-30T01:53:51;2.17;;;1.30;;
17504;SDS011;8870;50.950;11.762;2022-07-30T01:59:00;2.05;;;1.30;;
17504;SDS011;8870;50.950;11.762;2022-07-30T02:04:08;1.42;;;1.13;;
17504;SDS011;8870;50.950;11.762;2022-07-30T02:09:14;1.38;;;1.23;;
17504;SDS011;8870;50.950;11.762;2022-07-30T02:14:25;3.95;;;1.10;;
17504;SDS011;8870;50.950;11.762;2022-07-30T02:19:35;1.33;;;1.23;;
17504;SDS011;8870;50.950;11.762;2022-07-30T02:24:47;1.77;;;1.40;;
17504;SDS011;8870;50.950;11.762;2022-07-30T02:29:57;1.38;;;1.20;;
17504;SDS011;8870;50.950;11.762;2022-07-30T02:35:06;4.50;;;1.52;;
17504;SDS011;8870;50.950;11.762;2022-07-30T02:40:14;1.30;;;1.20;;
17504;SDS011;8870;50.950;11.762;2022-07-30T02:45:24;2.58;;;1.60;;
17504;SDS011;8870;50.950;11.762;2022-07-30T02:50:31;3.13;;;1.67;;
17504;SDS011;8870;50.950;11.762;2022-07-30T02:55:39;1.65;;;1.48;;
17504;SDS011;8870;50.950;11.762;2022-07-30T03:00:49;1.92;;;1.73;;
17504;SDS011;8870;50.950;11.762;2022-07-30T03:05:56;1.83;;;1.73;;
17504;SDS011;8870;50.950;11.762;2022-07-30T03:11:03;2.47;;;1.83;;
17504;SDS011;8870;50.950;11.762;2022-07-30T03:16:11;2.70;;;2.10;;
17504;SDS011;8870;50.950;11.762;2022-07-30T03:21:19;3.00;;;2.20;;
17504;SDS011;8870;50.950;11.762;2022-07-30T03:26:29;2.88;;;2.10;;
17504;SDS011;8870;50.950;11.762;2022-07-30T03:31:37;4.88;;;2.33;;
17504;SDS011;8870;50.950;11.762;2022-07-30T03:36:45;3.03;;;2.37;;
17504;SDS011;8870;50.950;11.762;2022-07-30T03:41:52;3.13;;;2.50;;
17504;SDS011;8870;50.950;11.762;2022-07-30T03:47:01;3.10;;;2.67;;
17504;SDS011;8870;50.950;11.762;2022-07-30T03:52:15;3.97;;;2.80;;
17504;SDS011;8870;50.950;11.762;2022-07-30T03:57:21;4.82;;;3.20;;
17504;SDS011;8870;50.950;11.762;2022-07-30T04:02:28;4.85;;;3.60;;
17504;SDS011;8870;50.950;11.762;2022-07-30T04:07:59;4.63;;;4.10;;
17504;SDS011;8870;50.950;11.762;2022-07-30T04:13:06;5.20;;;4.18;;
17504;SDS011;8870;50.950;11.762;2022-07-30T04:18:14;6.55;;;4.75;;
17504;SDS011;8870;50.950;11.762;2022-07-30T04:23:22;6.50;;;5.30;;
17504;SDS011;8870;50.950;11.762;2022-07-30T04:28:27;6.13;;;5.22;;
17504;SDS011;8870;50.950;11.762;2022-07-30T04:33:36;6.60;;;5.43;;
17504;SDS011;8870;50.950;11.762;2022-07-30T04:38:48;6.85;;;5.45;;
17504;SDS011;8870;50.950;11.762;2022-07-30T04:43:56;6.45;;;5.30;;
17504;SDS011;8870;50.950;11.762;2022-07-30T04:49:04;7.53;;;5.85;;
17504;SDS011;8870;50.950;11.762;2022-07-30T04:54:10;5.30;;;4.78;;
17504;SDS011;8870;50.950;11.762;2022-07-30T04:59:18;15.10;;;5.60;;
17504;SDS011;8870;50.950;11.762;2022-07-30T05:04:29;6.07;;;4.72;;
17504;SDS011;8870;50.950;11.762;2022-07-30T05:09:36;6.13;;;4.95;;
17504;SDS011;8870;50.950;11.762;2022-07-30T05:14:44;5.05;;;4.30;;
17504;SDS011;8870;50.950;11.762;2022-07-30T05:19:53;7.63;;;4.90;;
17504;SDS011;8870;50.950;11.762;2022-07-30T05:25:00;4.70;;;4.07;;
17504;SDS011;8870;50.950;11.762;2022-07-30T05:30:17;5.68;;;4.20;;
17504;SDS011;8870;50.950;11.762;2022-07-30T05:35:33;4.50;;;4.00;;
17504;SDS011;8870;50.950;11.762;2022-07-30T05:40:38;5.93;;;4.25;;
17504;SDS011;8870;50.950;11.762;2022-07-30T05:46:02;7.82;;;6.50;;
17504;SDS011;8870;50.950;11.762;2022-07-30T05:51:10;5.68;;;4.63;;
17504;SDS011;8870;50.950;11.762;2022-07-30T05:56:15;6.72;;;5.60;;
17504;SDS011;8870;50.950;11.762;2022-07-30T06:01:43;7.28;;;5.07;;
17504;SDS011;8870;50.950;11.762;2022-07-30T06:07:03;6.35;;;5.07;;
17504;SDS011;8870;50.950;11.762;2022-07-30T06:12:08;7.25;;;5.35;;
17504;SDS011;8870;50.950;11.762;2022-07-30T06:17:14;11.45;;;6.28;;
17504;SDS011;8870;50.950;11.762;2022-07-30T06:22:36;8.68;;;7.20;;
17504;SDS011;8870;50.950;11.762;2022-07-30T06:27:50;8.90;;;7.18;;
17504;SDS011;8870;50.950;11.762;2022-07-30T06:32:55;10.02;;;8.27;;
17504;SDS011;8870;50.950;11.762;2022-07-30T06:38:03;10.32;;;7.97;;
17504;SDS011;8870;50.950;11.762;2022-07-30T06:43:22;8.43;;;7.35;;
17504;SDS011;8870;50.950;11.762;2022-07-30T06:48:53;8.43;;;6.70;;
17504;SDS011;8870;50.950;11.762;2022-07-30T06:54:01;6.47;;;5.43;;
17504;SDS011;8870;50.950;11.762;2022-07-30T06:59:09;7.88;;;6.05;;
17504;SDS011;8870;50.950;11.762;2022-07-30T07:04:23;4.07;;;3.30;;
17504;SDS011;8870;50.950;11.762;2022-07-30T07:09:32;6.28;;;3.58;;
17504;SDS011;8870;50.950;11.762;2022-07-30T07:15:04;5.38;;;4.22;;
17504;SDS011;8870;50.950;11.762;2022-07-30T07:20:11;6.40;;;3.13;;
17504;SDS011;8870;50.950;11.762;2022-07-30T07:25:27;5.72;;;4.00;;
17504;SDS011;8870;50.950;11.762;2022-07-30T07:30:33;6.38;;;4.60;;
17504;SDS011;8870;50.950;11.762;2022-07-30T07:35:40;5.10;;;4.10;;
17504;SDS011;8870;50.950;11.762;2022-07-30T07:41:01;6.65;;;3.80;;
17504;SDS011;8870;50.950;11.762;2022-07-30T07:46:08;3.95;;;3.05;;
17504;SDS011;8870;50.950;11.762;2022-07-30T07:51:34;4.18;;;3.30;;
17504;SDS011;8870;50.950;11.762;2022-07-30T07:56:54;4.05;;;2.40;;
17504;SDS011;8870;50.950;11.762;2022-07-30T08:02:11;3.80;;;2.63;;
17504;SDS011;8870;50.950;11.762;2022-07-30T08:07:32;5.32;;;2.72;;
17504;SDS011;8870;50.950;11.762;2022-07-30T08:12:49;4.72;;;2.55;;
17504;SDS011;8870;50.950;11.762;2022-07-30T08:18:26;3.40;;;2.80;;
17504;SDS011;8870;50.950;11.762;2022-07-30T08:23:44;4.60;;;2.40;;
17504;SDS011;8870;50.950;11.762;2022-07-30T08:28:53;2.22;;;1.80;;
17504;SDS011;8870;50.950;11.762;2022-07-30T08:33:59;2.15;;;1.80;;
17504;SDS011;8870;50.950;11.762;2022-07-30T08:39:05;3.53;;;1.73;;
17504;SDS011;8870;50.950;11.762;2022-07-30T08:44:13;3.22;;;1.90;;
17504;SDS011;8870;50.950;11.762;2022-07-30T08:49:34;4.40;;;1.80;;
17504;SDS011;8870;50.950;11.762;2022-07-30T08:54:41;3.83;;;1.65;;
17504;SDS011;8870;50.950;11.762;2022-07-30T08:59:51;2.92;;;1.60;;
17504;SDS011;8870;50.950;11.762;2022-07-30T09:05:02;4.60;;;1.73;;
17504;SDS011;8870;50.950;11.762;2022-07-30T09:10:09;4.93;;;1.88;;
17504;SDS011;8870;50.950;11.762;2022-07-30T09:15:19;4.10;;;1.70;;
17504;SDS011;8870;50.950;11.762;2022-07-30T09:20:27;3.30;;;1.80;;
17504;SDS011;8870;50.950;11.762;2022-07-30T09:31:07;3.28;;;1.60;;
17504;SDS011;8870;50.950;11.762;2022-07-30T09:36:36;2.07;;;1.70;;
17504;SDS011;8870;50.950;11.762;2022-07-30T09:42:00;2.78;;;1.70;;
17504;SDS011;8870;50.950;11.762;2022-07-30T09:47:08;2.80;;;1.60;;
17504;SDS011;8870;50.950;11.762;2022-07-30T09:52:33;3.47;;;1.70;;
17504;SDS011;8870;50.950;11.762;2022-07-30T09:57:53;2.20;;;1.40;;
17504;SDS011;8870;50.950;11.762;2022-07-30T10:03:16;2.85;;;1.65;;
17504;SDS011;8870;50.950;11.762;2022-07-30T10:09:00;2.28;;;1.60;;
17504;SDS011;8870;50.950;11.762;2022-07-30T10:14:22;2.63;;;1.70;;
17504;SDS011;8870;50.950;11.762;2022-07-30T10:19:36;1.70;;;1.50;;
17504;SDS011;8870;50.950;11.762;2022-07-30T10:25:01;2.60;;;1.60;;
17504;SDS011;8870;50.950;11.762;2022-07-30T10:30:28;3.80;;;1.50;;
17504;SDS011;8870;50.950;11.762;2022-07-30T10:35:36;3.17;;;1.83;;
17504;SDS011;8870;50.950;11.762;2022-07-30T10:40:45;1.67;;;1.48;;
17504;SDS011;8870;50.950;11.762;2022-07-30T10:46:00;4.18;;;1.67;;
17504;SDS011;8870;50.950;11.762;2022-07-30T10:57:01;2.58;;;1.50;;
17504;SDS011;8870;50.950;11.762;2022-07-30T11:02:08;2.13;;;1.50;;
17504;SDS011;8870;50.950;11.762;2022-07-30T11:07:27;4.13;;;1.50;;
17504;SDS011;8870;50.950;11.762;2022-07-30T11:18:05;3.20;;;1.75;;
17504;SDS011;8870;50.950;11.762;2022-07-30T11:28:44;2.38;;;1.50;;
17504;SDS011;8870;50.950;11.762;2022-07-30T11:33:50;2.88;;;1.60;;
17504;SDS011;8870;50.950;11.762;2022-07-30T11:39:00;2.25;;;1.50;;
17504;SDS011;8870;50.950;11.762;2022-07-30T11:49:33;4.68;;;1.60;;
17504;SDS011;8870;50.950;11.762;2022-07-30T11:54:52;3.40;;;1.67;;
17504;SDS011;8870;50.950;11.762;2022-07-30T11:59:58;3.72;;;1.60;;
17504;SDS011;8870;50.950;11.762;2022-07-30T12:05:04;2.67;;;1.50;;
17504;SDS011;8870;50.950;11.762;2022-07-30T12:10:14;2.45;;;1.40;;
17504;SDS011;8870;50.950;11.762;2022-07-30T12:15:29;2.50;;;1.30;;
17504;SDS011;8870;50.950;11.762;2022-07-30T12:20:34;2.78;;;1.40;;
17504;SDS011;8870;50.950;11.762;2022-07-30T12:25:42;2.55;;;1.65;;
17504;SDS011;8870;50.950;11.762;2022-07-30T12:30:52;2.35;;;1.60;;
17504;SDS011;8870;50.950;11.762;2022-07-30T12:35:59;2.47;;;1.65;;
17504;SDS011;8870;50.950;11.762;2022-07-30T12:41:07;3.25;;;1.70;;
17504;SDS011;8870;50.950;11.762;2022-07-30T12:46:14;3.03;;;1.50;;
17504;SDS011;8870;50.950;11.762;2022-07-30T12:51:20;2.25;;;1.50;;
17504;SDS011;8870;50.950;11.762;2022-07-30T12:56:29;3.10;;;1.42;;
17504;SDS011;8870;50.950;11.762;2022-07-30T13:01:38;2.25;;;1.40;;
17504;SDS011;8870;50.950;11.762;2022-07-30T13:12:12;2.15;;;1.30;;
17504;SDS011;8870;50.950;11.762;2022-07-30T13:17:18;2.38;;;1.40;;
17504;SDS011;8870;50.950;11.762;2022-07-30T13:22:23;1.88;;;1.33;;
17504;SDS011;8870;50.950;11.762;2022-07-30T13:27:31;1.65;;;1.30;;
17504;SDS011;8870;50.950;11.762;2022-07-30T13:32:36;4.22;;;1.38;;
17504;SDS011;8870;50.950;11.762;2022-07-30T13:37:41;2.40;;;1.50;;
17504;SDS011;8870;50.950;11.762;2022-07-30T13:42:48;1.83;;;1.40;;
17504;SDS011;8870;50.950;11.762;2022-07-30T13:47:53;2.60;;;1.50;;
17504;SDS011;8870;50.950;11.762;2022-07-30T13:52:59;3.42;;;1.40;;
17504;SDS011;8870;50.950;11.762;2022-07-30T13:58:07;1.65;;;1.27;;
17504;SDS011;8870;50.950;11.762;2022-07-30T14:03:13;2.15;;;1.40;;
17504;SDS011;8870;50.950;11.762;2022-07-30T14:08:18;3.05;;;1.60;;
17504;SDS011;8870;50.950;11.762;2022-07-30T14:13:27;2.65;;;1.52;;
17504;SDS011;8870;50.950;11.762;2022-07-30T14:18:32;2.63;;;1.40;;
17504;SDS011;8870;50.950;11.762;2022-07-30T14:23:37;2.45;;;1.50;;
17504;SDS011;8870;50.950;11.762;2022-07-30T14:28:46;3.35;;;1.40;;
17504;SDS011;8870;50.950;11.762;2022-07-30T14:33:59;2.30;;;1.50;;
17504;SDS011;8870;50.950;11.762;2022-07-30T14:39:05;3.70;;;1.30;;
17504;SDS011;8870;50.950;11.762;2022-07-30T14:44:13;1.70;;;1.35;;
17504;SDS011;8870;50.950;11.762;2022-07-30T14:49:19;2.05;;;1.40;;
17504;SDS011;8870;50.950;11.762;2022-07-30T14:54:28;1.95;;;1.10;;
17504;SDS011;8870;50.950;11.762;2022-07-30T14:59:37;1.65;;;1.10;;
17504;SDS011;8870;50.950;11.762;2022-07-30T15:04:42;1.85;;;1.30;;
17504;SDS011;8870;50.950;11.762;2022-07-30T15:09:47;1.38;;;1.00;;
17504;SDS011;8870;50.950;11.762;2022-07-30T15:14:55;1.25;;;1.08;;
17504;SDS011;8870;50.950;11.762;2022-07-30T15:20:01;1.70;;;1.13;;
17504;SDS011;8870;50.950;11.762;2022-07-30T15:25:08;1.40;;;1.13;;
17504;SDS011;8870;50.950;11.762;2022-07-30T15:30:16;1.85;;;1.10;;
17504;SDS011;8870;50.950;11.762;2022-07-30T15:35:21;2.65;;;1.13;;
17504;SDS011;8870;50.950;11.762;2022-07-30T15:40:27;2.20;;;1.10;;
17504;SDS011;8870;50.950;11.762;2022-07-30T15:45:34;2.35;;;1.30;;
17504;SDS011;8870;50.950;11.762;2022-07-30T15:50:58;2.13;;;1.40;;
17504;SDS011;8870;50.950;11.762;2022-07-30T15:56:05;3.00;;;1.20;;
17504;SDS011;8870;50.950;11.762;2022-07-30T16:01:13;1.45;;;1.00;;
17504;SDS011;8870;50.950;11.762;2022-07-30T16:06:19;1.42;;;1.20;;
17504;SDS011;8870;50.950;11.762;2022-07-30T16:11:24;1.95;;;1.13;;
17504;SDS011;8870;50.950;11.762;2022-07-30T16:16:35;2.42;;;1.30;;
17504;SDS011;8870;50.950;11.762;2022-07-30T16:21:40;4.57;;;1.30;;
17504;SDS011;8870;50.950;11.762;2022-07-30T16:26:45;2.10;;;1.20;;
17504;SDS011;8870;50.950;11.762;2022-07-30T16:31:53;2.03;;;1.20;;
17504;SDS011;8870;50.950;11.762;2022-07-30T16:36:58;2.15;;;1.20;;
17504;SDS011;8870;50.950;11.762;2022-07-30T16:42:04;1.65;;;1.10;;
17504;SDS011;8870;50.950;11.762;2022-07-30T16:47:12;1.58;;;1.13;;
17504;SDS011;8870;50.950;11.762;2022-07-30T16:52:18;2.13;;;1.25;;
17504;SDS011;8870;50.950;11.762;2022-07-30T16:57:27;1.27;;;1.08;;
17504;SDS011;8870;50.950;11.762;2022-07-30T17:02:35;2.20;;;1.20;;
17504;SDS011;8870;50.950;11.762;2022-07-30T17:07:40;1.77;;;1.10;;
17504;SDS011;8870;50.950;11.762;2022-07-30T17:12:45;1.75;;;1.30;;
17504;SDS011;8870;50.950;11.762;2022-07-30T17:17:54;1.67;;;1.10;;
17504;SDS011;8870;50.950;11.762;2022-07-30T17:22:59;1.88;;;1.08;;
17504;SDS011;8870;50.950;11.762;2022-07-30T17:28:04;2.55;;;1.10;;
17504;SDS011;8870;50.950;11.762;2022-07-30T17:33:12;2.17;;;0.98;;
17504;SDS011;8870;50.950;11.762;2022-07-30T17:38:17;3.38;;;1.20;;
17504;SDS011;8870;50.950;11.762;2022-07-30T17:43:22;1.90;;;1.08;;
17504;SDS011;8870;50.950;11.762;2022-07-30T17:48:30;2.17;;;1.10;;
17504;SDS011;8870;50.950;11.762;2022-07-30T17:53:35;1.38;;;1.10;;
17504;SDS011;8870;50.950;11.762;2022-07-30T17:58:40;3.33;;;1.20;;
17504;SDS011;8870;50.950;11.762;2022-07-30T18:03:54;1.40;;;1.10;;
17504;SDS011;8870;50.950;11.762;2022-07-30T18:08:59;2.08;;;1.35;;
17504;SDS011;8870;50.950;11.762;2022-07-30T18:14:04;1.58;;;1.30;;
17504;SDS011;8870;50.950;11.762;2022-07-30T18:19:12;4.05;;;1.40;;
17504;SDS011;8870;50.950;11.762;2022-07-30T18:24:28;1.50;;;1.15;;
17504;SDS011;8870;50.950;11.762;2022-07-30T18:29:33;2.53;;;1.30;;
17504;SDS011;8870;50.950;11.762;2022-07-30T18:34:46;1.88;;;1.10;;
17504;SDS011;8870;50.950;11.762;2022-07-30T18:39:50;2.78;;;1.20;;
17504;SDS011;8870;50.950;11.762;2022-07-30T18:44:56;1.38;;;1.00;;
17504;SDS011;8870;50.950;11.762;2022-07-30T18:50:05;1.83;;;1.17;;
17504;SDS011;8870;50.950;11.762;2022-07-30T18:55:13;1.53;;;1.03;;
17504;SDS011;8870;50.950;11.762;2022-07-30T19:00:19;1.42;;;1.20;;
17504;SDS011;8870;50.950;11.762;2022-07-30T19:05:38;1.45;;;1.20;;
17504;SDS011;8870;50.950;11.762;2022-07-30T19:10:44;2.15;;;1.27;;
17504;SDS011;8870;50.950;11.762;2022-07-30T19:15:49;1.63;;;1.10;;
17504;SDS011;8870;50.950;11.762;2022-07-30T19:20:57;3.20;;;1.75;;
17504;SDS011;8870;50.950;11.762;2022-07-30T19:26:03;4.13;;;3.00;;
17504;SDS011;8870;50.950;11.762;2022-07-30T19:31:09;2.97;;;1.70;;
17504;SDS011;8870;50.950;11.762;2022-07-30T19:36:17;2.42;;;1.52;;
17504;SDS011;8870;50.950;11.762;2022-07-30T19:41:23;1.63;;;1.40;;
17504;SDS011;8870;50.950;11.762;2022-07-30T19:46:29;1.85;;;1.58;;
17504;SDS011;8870;50.950;11.762;2022-07-30T19:51:36;2.50;;;1.50;;
17504;SDS011;8870;50.950;11.762;2022-07-30T19:57:01;5.47;;;1.70;;
17504;SDS011;8870;50.950;11.762;2022-07-30T20:02:08;1.92;;;1.52;;
17504;SDS011;8870;50.950;11.762;2022-07-30T20:07:26;2.17;;;1.40;;
17504;SDS011;8870;50.950;11.762;2022-07-30T20:12:33;2.88;;;2.05;;
17504;SDS011;8870;50.950;11.762;2022-07-30T20:17:42;3.35;;;2.13;;
17504;SDS011;8870;50.950;11.762;2022-07-30T20:22:50;4.57;;;2.42;;
17504;SDS011;8870;50.950;11.762;2022-07-30T20:27:55;2.65;;;1.85;;
17504;SDS011;8870;50.950;11.762;2022-07-30T20:33:01;3.05;;;1.92;;
17504;SDS011;8870;50.950;11.762;2022-07-30T20:38:10;3.00;;;2.25;;
17504;SDS011;8870;50.950;11.762;2022-07-30T20:43:15;3.85;;;2.28;;
17504;SDS011;8870;50.950;11.762;2022-07-30T20:48:20;4.68;;;2.00;;
17504;SDS011;8870;50.950;11.762;2022-07-30T20:53:31;3.90;;;2.05;;
17504;SDS011;8870;50.950;11.762;2022-07-30T20:58:37;2.95;;;2.10;;
17504;SDS011;8870;50.950;11.762;2022-07-30T21:03:46;3.67;;;1.95;;
17504;SDS011;8870;50.950;11.762;2022-07-30T21:08:55;2.75;;;2.10;;
17504;SDS011;8870;50.950;11.762;2022-07-30T21:14:01;3.88;;;2.28;;
17504;SDS011;8870;50.950;11.762;2022-07-30T21:19:10;4.25;;;2.70;;
17504;SDS011;8870;50.950;11.762;2022-07-30T21:24:21;5.32;;;2.60;;
17504;SDS011;8870;50.950;11.762;2022-07-30T21:29:26;3.05;;;2.45;;
17504;SDS011;8870;50.950;11.762;2022-07-30T21:34:32;5.03;;;2.67;;
17504;SDS011;8870;50.950;11.762;2022-07-30T21:39:45;3.17;;;2.30;;
17504;SDS011;8870;50.950;11.762;2022-07-30T21:44:50;3.28;;;2.40;;
17504;SDS011;8870;50.950;11.762;2022-07-30T21:49:55;3.92;;;2.25;;
17504;SDS011;8870;50.950;11.762;2022-07-30T21:55:03;3.60;;;2.70;;
17504;SDS011;8870;50.950;11.762;2022-07-30T22:00:15;2.65;;;2.25;;
17504;SDS011;8870;50.950;11.762;2022-07-30T22:05:24;3.38;;;2.80;;
17504;SDS011;8870;50.950;11.762;2022-07-30T22:10:42;2.70;;;2.35;;
17504;SDS011;8870;50.950;11.762;2022-07-30T22:15:51;3.40;;;2.45;;
17504;SDS011;8870;50.950;11.762;2022-07-30T22:20:58;2.90;;;2.60;;
17504;SDS011;8870;50.950;11.762;2022-07-30T22:26:11;4.85;;;2.95;;
17504;SDS011;8870;50.950;11.762;2022-07-30T22:31:27;4.00;;;2.58;;
17504;SDS011;8870;50.950;11.762;2022-07-30T22:36:40;4.18;;;3.47;;
17504;SDS011;8870;50.950;11.762;2022-07-30T22:41:48;4.75;;;3.35;;
17504;SDS011;8870;50.950;11.762;2022-07-30T22:46:53;2.55;;;2.35;;
17504;SDS011;8870;50.950;11.762;2022-07-30T22:52:01;2.83;;;2.58;;
17504;SDS011;8870;50.950;11.762;2022-07-30T22:57:23;2.90;;;2.40;;
17504;SDS011;8870;50.950;11.762;2022-07-30T23:02:32;3.25;;;2.50;;
17504;SDS011;8870;50.950;11.762;2022-07-30T23:07:37;4.22;;;2.78;;
17504;SDS011;8870;50.950;11.762;2022-07-30T23:12:46;3.42;;;3.13;;
17504;SDS011;8870;50.950;11.762;2022-07-30T23:17:53;3.92;;;3.20;;
17504;SDS011;8870;50.950;11.762;2022-07-30T23:23:00;5.53;;;3.35;;
17504;SDS011;8870;50.950;11.762;2022-07-30T23:28:08;4.25;;;3.42;;
17504;SDS011;8870;50.950;11.762;2022-07-30T23:33:15;3.55;;;2.90;;
17504;SDS011;8870;50.950;11.762;2022-07-30T23:38:20;2.65;;;2.45;;
17504;SDS011;8870;50.950;11.762;2022-07-30T23:43:28;2.42;;;2.22;;
17504;SDS011;8870;50.950;11.762;2022-07-30T23:48:33;3.53;;;2.90;;
17504;SDS011;8870;50.950;11.762;2022-07-30T23:53:38;3.42;;;2.60;;
17504;SDS011;8870;50.950;11.762;2022-07-30T23:58:46;4.15;;;2.30;;
